sensor_id;sensor_type;location;lat;lon;timestamp;P1;durP1;ratioP1;P2;durP2;ratioP2
72590;SDS011;60625;51.212;5.952;2023-09-18T00:00:15;12.10;;;6.50;;
72590;SDS011;60625;51.212;5.952;2023-09-18T00:05:15;11.20;;;5.90;;
72590;SDS011;60625;51.212;5.952;2023-09-18T00:10:17;8.20;;;5.50;;
72590;SDS011;60625;51.212;5.952;2023-09-18T00:15:18;11.30;;;5.70;;
72590;SDS011;60625;51.212;5.952;2023-09-18T00:20:18;13.70;;;5.90;;
72590;SDS011;60625;51.212;5.952;2023-09-18T00:25:20;10.10;;;5.90;;
72590;SDS011;60625;51.212;5.952;2023-09-18T00:30:20;11.20;;;5.60;;
72590;SDS011;60625;51.212;5.952;2023-09-18T00:35:21;8.50;;;4.80;;
72590;SDS011;60625;51.212;5.952;2023-09-18T00:40:23;9.30;;;5.10;;
72590;SDS011;60625;51.212;5.952;2023-09-18T00:45:24;10.00;;;5.30;;
72590;SDS011;60625;51.212;5.952;2023-09-18T00:50:25;8.10;;;4.70;;
72590;SDS011;60625;51.212;5.952;2023-09-18T00:55:27;10.50;;;4.90;;
72590;SDS011;60625;51.212;5.952;2023-09-18T01:00:30;8.80;;;4.50;;
72590;SDS011;60625;51.212;5.952;2023-09-18T01:05:32;11.30;;;4.70;;
72590;SDS011;60625;51.212;5.952;2023-09-18T01:10:59;8.90;;;4.20;;
72590;SDS011;60625;51.212;5.952;2023-09-18T01:16:39;10.30;;;4.60;;
72590;SDS011;60625;51.212;5.952;2023-09-18T01:22:09;14.00;;;3.70;;
72590;SDS011;60625;51.212;5.952;2023-09-18T01:27:13;8.20;;;3.80;;
72590;SDS011;60625;51.212;5.952;2023-09-18T01:32:15;11.60;;;4.10;;
72590;SDS011;60625;51.212;5.952;2023-09-18T01:37:21;11.00;;;4.40;;
72590;SDS011;60625;51.212;5.952;2023-09-18T01:42:25;8.40;;;4.00;;
72590;SDS011;60625;51.212;5.952;2023-09-18T01:47:28;8.90;;;4.40;;
72590;SDS011;60625;51.212;5.952;2023-09-18T01:52:28;8.90;;;4.40;;
72590;SDS011;60625;51.212;5.952;2023-09-18T01:57:29;12.60;;;4.30;;
72590;SDS011;60625;51.212;5.952;2023-09-18T02:02:30;10.20;;;4.30;;
72590;SDS011;60625;51.212;5.952;2023-09-18T02:07:30;8.90;;;3.90;;
72590;SDS011;60625;51.212;5.952;2023-09-18T02:12:31;7.10;;;3.60;;
72590;SDS011;60625;51.212;5.952;2023-09-18T02:17:35;8.90;;;4.40;;
72590;SDS011;60625;51.212;5.952;2023-09-18T02:22:37;8.30;;;4.10;;
72590;SDS011;60625;51.212;5.952;2023-09-18T02:27:40;11.90;;;4.60;;
72590;SDS011;60625;51.212;5.952;2023-09-18T02:32:40;9.00;;;4.00;;
72590;SDS011;60625;51.212;5.952;2023-09-18T02:37:41;10.50;;;3.90;;
72590;SDS011;60625;51.212;5.952;2023-09-18T02:42:41;9.40;;;4.10;;
72590;SDS011;60625;51.212;5.952;2023-09-18T02:47:41;9.80;;;4.80;;
72590;SDS011;60625;51.212;5.952;2023-09-18T02:52:42;8.80;;;4.60;;
72590;SDS011;60625;51.212;5.952;2023-09-18T02:57:43;9.30;;;4.50;;
72590;SDS011;60625;51.212;5.952;2023-09-18T03:02:43;12.60;;;4.50;;
72590;SDS011;60625;51.212;5.952;2023-09-18T03:07:44;11.00;;;4.20;;
72590;SDS011;60625;51.212;5.952;2023-09-18T03:12:49;9.40;;;3.70;;
72590;SDS011;60625;51.212;5.952;2023-09-18T03:17:50;12.00;;;4.40;;
72590;SDS011;60625;51.212;5.952;2023-09-18T03:22:51;9.10;;;3.90;;
72590;SDS011;60625;51.212;5.952;2023-09-18T03:27:54;12.00;;;4.10;;
72590;SDS011;60625;51.212;5.952;2023-09-18T03:32:57;9.90;;;3.40;;
72590;SDS011;60625;51.212;5.952;2023-09-18T03:37:58;10.60;;;3.90;;
72590;SDS011;60625;51.212;5.952;2023-09-18T03:42:59;14.60;;;4.20;;
72590;SDS011;60625;51.212;5.952;2023-09-18T03:48:00;10.50;;;4.70;;
72590;SDS011;60625;51.212;5.952;2023-09-18T03:53:01;10.40;;;4.50;;
72590;SDS011;60625;51.212;5.952;2023-09-18T03:58:02;14.40;;;4.20;;
72590;SDS011;60625;51.212;5.952;2023-09-18T04:03:04;11.90;;;3.80;;
72590;SDS011;60625;51.212;5.952;2023-09-18T04:08:05;11.90;;;3.80;;
72590;SDS011;60625;51.212;5.952;2023-09-18T04:13:06;13.20;;;3.80;;
72590;SDS011;60625;51.212;5.952;2023-09-18T04:18:06;11.30;;;3.90;;
72590;SDS011;60625;51.212;5.952;2023-09-18T04:23:26;15.10;;;3.40;;
72590;SDS011;60625;51.212;5.952;2023-09-18T04:28:27;12.20;;;3.70;;
72590;SDS011;60625;51.212;5.952;2023-09-18T04:33:28;13.30;;;3.70;;
72590;SDS011;60625;51.212;5.952;2023-09-18T04:38:31;10.70;;;3.70;;
72590;SDS011;60625;51.212;5.952;2023-09-18T04:43:33;9.50;;;3.00;;
72590;SDS011;60625;51.212;5.952;2023-09-18T04:48:36;11.70;;;3.00;;
72590;SDS011;60625;51.212;5.952;2023-09-18T04:53:38;8.30;;;2.90;;
72590;SDS011;60625;51.212;5.952;2023-09-18T04:58:39;7.60;;;3.10;;
72590;SDS011;60625;51.212;5.952;2023-09-18T05:03:40;8.80;;;3.30;;
72590;SDS011;60625;51.212;5.952;2023-09-18T05:08:43;12.00;;;3.20;;
72590;SDS011;60625;51.212;5.952;2023-09-18T05:13:48;9.30;;;3.30;;
72590;SDS011;60625;51.212;5.952;2023-09-18T05:18:49;9.90;;;2.90;;
72590;SDS011;60625;51.212;5.952;2023-09-18T05:23:50;7.80;;;3.00;;
72590;SDS011;60625;51.212;5.952;2023-09-18T05:28:51;6.30;;;2.40;;
72590;SDS011;60625;51.212;5.952;2023-09-18T05:33:52;7.50;;;2.50;;
72590;SDS011;60625;51.212;5.952;2023-09-18T05:38:52;6.60;;;2.50;;
72590;SDS011;60625;51.212;5.952;2023-09-18T05:43:53;7.20;;;2.10;;
72590;SDS011;60625;51.212;5.952;2023-09-18T05:48:53;5.70;;;2.10;;
72590;SDS011;60625;51.212;5.952;2023-09-18T05:53:57;5.80;;;2.00;;
72590;SDS011;60625;51.212;5.952;2023-09-18T05:58:57;6.80;;;1.70;;
72590;SDS011;60625;51.212;5.952;2023-09-18T06:03:58;8.50;;;1.80;;
72590;SDS011;60625;51.212;5.952;2023-09-18T06:08:59;9.30;;;2.30;;
72590;SDS011;60625;51.212;5.952;2023-09-18T06:13:59;7.70;;;2.20;;
72590;SDS011;60625;51.212;5.952;2023-09-18T06:19:00;10.40;;;1.80;;
72590;SDS011;60625;51.212;5.952;2023-09-18T06:24:00;5.80;;;1.80;;
72590;SDS011;60625;51.212;5.952;2023-09-18T06:29:01;6.90;;;1.70;;
72590;SDS011;60625;51.212;5.952;2023-09-18T06:34:02;5.10;;;1.70;;
72590;SDS011;60625;51.212;5.952;2023-09-18T06:39:03;3.90;;;1.60;;
72590;SDS011;60625;51.212;5.952;2023-09-18T06:44:03;5.00;;;1.60;;
72590;SDS011;60625;51.212;5.952;2023-09-18T06:49:04;6.80;;;1.70;;
72590;SDS011;60625;51.212;5.952;2023-09-18T06:54:05;4.60;;;1.20;;
72590;SDS011;60625;51.212;5.952;2023-09-18T06:59:05;7.90;;;1.70;;
72590;SDS011;60625;51.212;5.952;2023-09-18T07:04:06;4.90;;;1.20;;
72590;SDS011;60625;51.212;5.952;2023-09-18T07:09:06;6.20;;;1.50;;
72590;SDS011;60625;51.212;5.952;2023-09-18T07:14:07;4.70;;;1.30;;
72590;SDS011;60625;51.212;5.952;2023-09-18T07:19:08;7.20;;;1.50;;
72590;SDS011;60625;51.212;5.952;2023-09-18T07:24:11;6.00;;;1.30;;
72590;SDS011;60625;51.212;5.952;2023-09-18T07:29:16;4.80;;;1.40;;
72590;SDS011;60625;51.212;5.952;2023-09-18T07:34:17;5.10;;;1.90;;
72590;SDS011;60625;51.212;5.952;2023-09-18T07:39:18;6.80;;;1.50;;
72590;SDS011;60625;51.212;5.952;2023-09-18T07:44:21;5.20;;;1.40;;
72590;SDS011;60625;51.212;5.952;2023-09-18T07:49:22;5.40;;;1.50;;
72590;SDS011;60625;51.212;5.952;2023-09-18T07:54:22;5.90;;;1.30;;
72590;SDS011;60625;51.212;5.952;2023-09-18T07:59:23;5.00;;;1.30;;
72590;SDS011;60625;51.212;5.952;2023-09-18T08:04:27;6.50;;;1.40;;
72590;SDS011;60625;51.212;5.952;2023-09-18T08:09:28;4.60;;;1.40;;
72590;SDS011;60625;51.212;5.952;2023-09-18T08:14:29;5.90;;;1.10;;
72590;SDS011;60625;51.212;5.952;2023-09-18T08:19:30;5.50;;;1.60;;
72590;SDS011;60625;51.212;5.952;2023-09-18T08:24:35;6.50;;;1.30;;
72590;SDS011;60625;51.212;5.952;2023-09-18T08:29:36;6.30;;;1.30;;
72590;SDS011;60625;51.212;5.952;2023-09-18T08:34:36;4.70;;;1.20;;
72590;SDS011;60625;51.212;5.952;2023-09-18T08:39:37;4.40;;;1.50;;
72590;SDS011;60625;51.212;5.952;2023-09-18T08:44:38;5.30;;;1.40;;
72590;SDS011;60625;51.212;5.952;2023-09-18T08:49:41;6.10;;;1.40;;
72590;SDS011;60625;51.212;5.952;2023-09-18T08:54:43;4.30;;;1.20;;
72590;SDS011;60625;51.212;5.952;2023-09-18T08:59:45;7.90;;;1.80;;
72590;SDS011;60625;51.212;5.952;2023-09-18T09:04:46;4.90;;;1.40;;
72590;SDS011;60625;51.212;5.952;2023-09-18T09:09:47;4.20;;;1.60;;
72590;SDS011;60625;51.212;5.952;2023-09-18T09:15:03;5.70;;;1.70;;
72590;SDS011;60625;51.212;5.952;2023-09-18T09:20:12;6.40;;;1.50;;
72590;SDS011;60625;51.212;5.952;2023-09-18T09:30:25;5.90;;;1.70;;
72590;SDS011;60625;51.212;5.952;2023-09-18T09:35:33;5.00;;;1.70;;
72590;SDS011;60625;51.212;5.952;2023-09-18T09:40:38;5.20;;;1.90;;
72590;SDS011;60625;51.212;5.952;2023-09-18T09:45:41;6.90;;;1.70;;
72590;SDS011;60625;51.212;5.952;2023-09-18T09:50:47;6.40;;;1.90;;
72590;SDS011;60625;51.212;5.952;2023-09-18T09:55:55;5.10;;;1.40;;
72590;SDS011;60625;51.212;5.952;2023-09-18T10:00:58;7.30;;;1.80;;
72590;SDS011;60625;51.212;5.952;2023-09-18T10:06:06;7.90;;;1.80;;
72590;SDS011;60625;51.212;5.952;2023-09-18T10:11:13;7.40;;;1.70;;
72590;SDS011;60625;51.212;5.952;2023-09-18T10:16:18;6.30;;;1.50;;
72590;SDS011;60625;51.212;5.952;2023-09-18T10:21:26;5.90;;;2.10;;
72590;SDS011;60625;51.212;5.952;2023-09-18T10:26:35;7.10;;;1.80;;
72590;SDS011;60625;51.212;5.952;2023-09-18T10:31:44;6.40;;;1.80;;
72590;SDS011;60625;51.212;5.952;2023-09-18T10:36:52;9.40;;;1.70;;
72590;SDS011;60625;51.212;5.952;2023-09-18T10:41:55;6.60;;;2.10;;
72590;SDS011;60625;51.212;5.952;2023-09-18T10:46:58;6.10;;;1.70;;
72590;SDS011;60625;51.212;5.952;2023-09-18T10:52:01;6.00;;;2.50;;
72590;SDS011;60625;51.212;5.952;2023-09-18T10:57:01;5.10;;;1.60;;
72590;SDS011;60625;51.212;5.952;2023-09-18T11:02:03;6.10;;;2.20;;
72590;SDS011;60625;51.212;5.952;2023-09-18T11:07:07;6.00;;;2.00;;
72590;SDS011;60625;51.212;5.952;2023-09-18T11:12:10;4.40;;;2.00;;
72590;SDS011;60625;51.212;5.952;2023-09-18T11:17:34;5.70;;;2.10;;
72590;SDS011;60625;51.212;5.952;2023-09-18T11:22:36;5.50;;;1.80;;
72590;SDS011;60625;51.212;5.952;2023-09-18T11:27:54;5.80;;;1.70;;
72590;SDS011;60625;51.212;5.952;2023-09-18T11:32:56;5.40;;;1.80;;
72590;SDS011;60625;51.212;5.952;2023-09-18T11:38:08;5.20;;;1.80;;
72590;SDS011;60625;51.212;5.952;2023-09-18T11:43:26;3.90;;;1.70;;
72590;SDS011;60625;51.212;5.952;2023-09-18T11:48:32;4.10;;;1.80;;
72590;SDS011;60625;51.212;5.952;2023-09-18T11:53:35;6.20;;;2.00;;
72590;SDS011;60625;51.212;5.952;2023-09-18T11:58:45;4.90;;;1.40;;
72590;SDS011;60625;51.212;5.952;2023-09-18T12:04:14;5.20;;;1.70;;
72590;SDS011;60625;51.212;5.952;2023-09-18T12:09:14;4.10;;;1.10;;
72590;SDS011;60625;51.212;5.952;2023-09-18T12:14:19;4.30;;;1.70;;
72590;SDS011;60625;51.212;5.952;2023-09-18T12:19:20;4.60;;;1.70;;
72590;SDS011;60625;51.212;5.952;2023-09-18T12:24:26;4.70;;;1.20;;
72590;SDS011;60625;51.212;5.952;2023-09-18T12:29:27;5.30;;;1.90;;
72590;SDS011;60625;51.212;5.952;2023-09-18T12:34:28;4.90;;;1.50;;
72590;SDS011;60625;51.212;5.952;2023-09-18T12:39:32;4.80;;;1.90;;
72590;SDS011;60625;51.212;5.952;2023-09-18T12:44:33;10.10;;;2.00;;
72590;SDS011;60625;51.212;5.952;2023-09-18T12:49:33;6.20;;;1.80;;
72590;SDS011;60625;51.212;5.952;2023-09-18T12:54:41;6.30;;;1.40;;
72590;SDS011;60625;51.212;5.952;2023-09-18T12:59:44;6.40;;;1.70;;
72590;SDS011;60625;51.212;5.952;2023-09-18T13:04:55;6.00;;;1.90;;
72590;SDS011;60625;51.212;5.952;2023-09-18T13:10:02;4.10;;;1.20;;
72590;SDS011;60625;51.212;5.952;2023-09-18T13:15:04;4.90;;;1.50;;
72590;SDS011;60625;51.212;5.952;2023-09-18T13:20:17;4.10;;;1.70;;
72590;SDS011;60625;51.212;5.952;2023-09-18T13:25:25;7.40;;;1.80;;
72590;SDS011;60625;51.212;5.952;2023-09-18T13:30:30;6.20;;;2.10;;
72590;SDS011;60625;51.212;5.952;2023-09-18T13:35:37;6.90;;;2.20;;
72590;SDS011;60625;51.212;5.952;2023-09-18T13:40:41;5.10;;;1.90;;
72590;SDS011;60625;51.212;5.952;2023-09-18T13:45:42;7.70;;;1.50;;
72590;SDS011;60625;51.212;5.952;2023-09-18T13:50:43;5.30;;;1.80;;
72590;SDS011;60625;51.212;5.952;2023-09-18T13:55:43;6.80;;;1.80;;
72590;SDS011;60625;51.212;5.952;2023-09-18T14:00:44;4.90;;;1.60;;
72590;SDS011;60625;51.212;5.952;2023-09-18T14:05:44;6.20;;;1.60;;
72590;SDS011;60625;51.212;5.952;2023-09-18T14:10:46;4.70;;;1.90;;
72590;SDS011;60625;51.212;5.952;2023-09-18T14:15:46;6.20;;;1.20;;
72590;SDS011;60625;51.212;5.952;2023-09-18T14:20:48;5.80;;;1.30;;
72590;SDS011;60625;51.212;5.952;2023-09-18T14:25:49;5.50;;;2.00;;
72590;SDS011;60625;51.212;5.952;2023-09-18T14:30:50;5.30;;;1.70;;
72590;SDS011;60625;51.212;5.952;2023-09-18T14:35:51;3.60;;;1.50;;
72590;SDS011;60625;51.212;5.952;2023-09-18T14:40:52;6.80;;;1.60;;
72590;SDS011;60625;51.212;5.952;2023-09-18T14:45:52;7.70;;;1.20;;
72590;SDS011;60625;51.212;5.952;2023-09-18T14:50:57;4.60;;;1.60;;
72590;SDS011;60625;51.212;5.952;2023-09-18T14:55:58;4.80;;;1.30;;
72590;SDS011;60625;51.212;5.952;2023-09-18T15:00:58;6.10;;;1.50;;
72590;SDS011;60625;51.212;5.952;2023-09-18T15:05:59;4.70;;;1.50;;
72590;SDS011;60625;51.212;5.952;2023-09-18T15:11:02;4.10;;;1.80;;
72590;SDS011;60625;51.212;5.952;2023-09-18T15:16:04;3.50;;;1.60;;
72590;SDS011;60625;51.212;5.952;2023-09-18T15:21:06;7.70;;;1.70;;
72590;SDS011;60625;51.212;5.952;2023-09-18T15:26:07;5.10;;;1.60;;
72590;SDS011;60625;51.212;5.952;2023-09-18T15:31:07;4.30;;;1.30;;
72590;SDS011;60625;51.212;5.952;2023-09-18T15:36:08;4.60;;;1.30;;
72590;SDS011;60625;51.212;5.952;2023-09-18T15:41:08;4.60;;;1.80;;
72590;SDS011;60625;51.212;5.952;2023-09-18T15:46:09;4.30;;;1.30;;
72590;SDS011;60625;51.212;5.952;2023-09-18T15:51:10;5.70;;;1.80;;
72590;SDS011;60625;51.212;5.952;2023-09-18T15:56:11;4.50;;;1.40;;
72590;SDS011;60625;51.212;5.952;2023-09-18T16:01:12;2.90;;;0.90;;
72590;SDS011;60625;51.212;5.952;2023-09-18T16:06:14;4.70;;;1.90;;
72590;SDS011;60625;51.212;5.952;2023-09-18T16:11:18;6.50;;;1.60;;
72590;SDS011;60625;51.212;5.952;2023-09-18T16:16:19;4.40;;;1.30;;
72590;SDS011;60625;51.212;5.952;2023-09-18T16:21:23;4.70;;;1.30;;
72590;SDS011;60625;51.212;5.952;2023-09-18T16:26:23;4.90;;;1.90;;
72590;SDS011;60625;51.212;5.952;2023-09-18T16:31:24;6.10;;;2.00;;
72590;SDS011;60625;51.212;5.952;2023-09-18T16:36:26;6.00;;;1.80;;
72590;SDS011;60625;51.212;5.952;2023-09-18T16:41:27;5.50;;;2.00;;
72590;SDS011;60625;51.212;5.952;2023-09-18T16:46:28;6.40;;;1.60;;
72590;SDS011;60625;51.212;5.952;2023-09-18T16:51:28;4.20;;;1.30;;
72590;SDS011;60625;51.212;5.952;2023-09-18T16:56:30;5.50;;;1.70;;
72590;SDS011;60625;51.212;5.952;2023-09-18T17:01:30;5.50;;;1.80;;
72590;SDS011;60625;51.212;5.952;2023-09-18T17:06:30;3.70;;;1.40;;
72590;SDS011;60625;51.212;5.952;2023-09-18T17:11:35;5.40;;;1.60;;
72590;SDS011;60625;51.212;5.952;2023-09-18T17:16:35;4.60;;;1.70;;
72590;SDS011;60625;51.212;5.952;2023-09-18T17:21:36;4.80;;;1.80;;
72590;SDS011;60625;51.212;5.952;2023-09-18T17:26:36;6.50;;;2.10;;
72590;SDS011;60625;51.212;5.952;2023-09-18T17:31:37;4.80;;;1.70;;
72590;SDS011;60625;51.212;5.952;2023-09-18T17:36:37;4.50;;;2.20;;
72590;SDS011;60625;51.212;5.952;2023-09-18T17:41:38;6.10;;;1.80;;
72590;SDS011;60625;51.212;5.952;2023-09-18T17:46:38;5.90;;;2.00;;
72590;SDS011;60625;51.212;5.952;2023-09-18T17:51:39;5.00;;;1.70;;
72590;SDS011;60625;51.212;5.952;2023-09-18T17:56:40;6.40;;;1.50;;
72590;SDS011;60625;51.212;5.952;2023-09-18T18:01:40;4.10;;;1.90;;
72590;SDS011;60625;51.212;5.952;2023-09-18T18:06:41;4.10;;;1.50;;
72590;SDS011;60625;51.212;5.952;2023-09-18T18:11:44;4.10;;;1.80;;
72590;SDS011;60625;51.212;5.952;2023-09-18T18:16:45;4.40;;;1.20;;
72590;SDS011;60625;51.212;5.952;2023-09-18T18:21:45;5.10;;;1.40;;
72590;SDS011;60625;51.212;5.952;2023-09-18T18:26:46;4.30;;;1.20;;
72590;SDS011;60625;51.212;5.952;2023-09-18T18:31:46;3.50;;;1.50;;
72590;SDS011;60625;51.212;5.952;2023-09-18T18:36:46;5.20;;;1.30;;
72590;SDS011;60625;51.212;5.952;2023-09-18T18:41:48;4.40;;;1.70;;
72590;SDS011;60625;51.212;5.952;2023-09-18T18:46:49;6.40;;;1.50;;
72590;SDS011;60625;51.212;5.952;2023-09-18T18:51:50;4.30;;;1.60;;
72590;SDS011;60625;51.212;5.952;2023-09-18T18:56:52;5.10;;;1.60;;
72590;SDS011;60625;51.212;5.952;2023-09-18T19:01:53;4.80;;;1.60;;
72590;SDS011;60625;51.212;5.952;2023-09-18T19:06:53;5.30;;;1.80;;
72590;SDS011;60625;51.212;5.952;2023-09-18T19:11:55;3.80;;;1.30;;
72590;SDS011;60625;51.212;5.952;2023-09-18T19:16:55;8.60;;;1.60;;
72590;SDS011;60625;51.212;5.952;2023-09-18T19:21:56;6.80;;;1.50;;
72590;SDS011;60625;51.212;5.952;2023-09-18T19:26:56;4.30;;;1.40;;
72590;SDS011;60625;51.212;5.952;2023-09-18T19:31:57;4.80;;;1.70;;
72590;SDS011;60625;51.212;5.952;2023-09-18T19:36:57;3.80;;;1.50;;
72590;SDS011;60625;51.212;5.952;2023-09-18T19:41:58;4.20;;;1.80;;
72590;SDS011;60625;51.212;5.952;2023-09-18T19:47:02;4.30;;;1.50;;
72590;SDS011;60625;51.212;5.952;2023-09-18T19:52:04;4.70;;;1.90;;
72590;SDS011;60625;51.212;5.952;2023-09-18T19:57:06;7.30;;;2.00;;
72590;SDS011;60625;51.212;5.952;2023-09-18T20:02:07;5.30;;;1.80;;
72590;SDS011;60625;51.212;5.952;2023-09-18T20:07:08;6.30;;;1.60;;
72590;SDS011;60625;51.212;5.952;2023-09-18T20:12:09;5.40;;;1.80;;
72590;SDS011;60625;51.212;5.952;2023-09-18T20:17:10;5.20;;;1.50;;
72590;SDS011;60625;51.212;5.952;2023-09-18T20:22:11;5.30;;;1.70;;
72590;SDS011;60625;51.212;5.952;2023-09-18T20:27:12;4.80;;;1.90;;
72590;SDS011;60625;51.212;5.952;2023-09-18T20:32:12;6.60;;;1.60;;
72590;SDS011;60625;51.212;5.952;2023-09-18T20:37:14;4.40;;;1.00;;
72590;SDS011;60625;51.212;5.952;2023-09-18T20:42:14;10.40;;;1.30;;
72590;SDS011;60625;51.212;5.952;2023-09-18T20:47:15;4.40;;;1.60;;
72590;SDS011;60625;51.212;5.952;2023-09-18T20:52:17;5.80;;;1.50;;
72590;SDS011;60625;51.212;5.952;2023-09-18T20:57:18;6.10;;;1.40;;
72590;SDS011;60625;51.212;5.952;2023-09-18T21:02:18;6.90;;;1.80;;
72590;SDS011;60625;51.212;5.952;2023-09-18T21:07:19;8.40;;;1.40;;
72590;SDS011;60625;51.212;5.952;2023-09-18T21:12:20;4.80;;;1.60;;
72590;SDS011;60625;51.212;5.952;2023-09-18T21:17:23;6.70;;;1.50;;
72590;SDS011;60625;51.212;5.952;2023-09-18T21:22:24;8.30;;;1.40;;
72590;SDS011;60625;51.212;5.952;2023-09-18T21:27:24;6.80;;;1.30;;
72590;SDS011;60625;51.212;5.952;2023-09-18T21:32:25;6.30;;;1.50;;
72590;SDS011;60625;51.212;5.952;2023-09-18T21:37:25;9.30;;;1.90;;
72590;SDS011;60625;51.212;5.952;2023-09-18T21:42:26;9.30;;;1.50;;
72590;SDS011;60625;51.212;5.952;2023-09-18T21:47:26;6.90;;;1.20;;
72590;SDS011;60625;51.212;5.952;2023-09-18T21:52:27;6.80;;;1.20;;
72590;SDS011;60625;51.212;5.952;2023-09-18T21:57:27;7.80;;;1.30;;
72590;SDS011;60625;51.212;5.952;2023-09-18T22:02:28;8.40;;;1.70;;
72590;SDS011;60625;51.212;5.952;2023-09-18T22:07:28;6.70;;;1.40;;
72590;SDS011;60625;51.212;5.952;2023-09-18T22:12:29;7.40;;;1.40;;
72590;SDS011;60625;51.212;5.952;2023-09-18T22:17:29;6.90;;;1.40;;
72590;SDS011;60625;51.212;5.952;2023-09-18T22:22:30;11.50;;;1.80;;
72590;SDS011;60625;51.212;5.952;2023-09-18T22:27:31;10.90;;;1.90;;
72590;SDS011;60625;51.212;5.952;2023-09-18T22:32:35;7.80;;;1.50;;
72590;SDS011;60625;51.212;5.952;2023-09-18T22:37:37;8.80;;;1.50;;
72590;SDS011;60625;51.212;5.952;2023-09-18T22:54:43;7.90;;;1.60;;
72590;SDS011;60625;51.212;5.952;2023-09-18T22:59:47;8.20;;;1.50;;
72590;SDS011;60625;51.212;5.952;2023-09-18T23:04:49;9.50;;;1.50;;
72590;SDS011;60625;51.212;5.952;2023-09-18T23:09:49;9.80;;;1.40;;
72590;SDS011;60625;51.212;5.952;2023-09-18T23:14:50;8.10;;;1.70;;
72590;SDS011;60625;51.212;5.952;2023-09-18T23:19:51;7.40;;;1.80;;
72590;SDS011;60625;51.212;5.952;2023-09-18T23:24:51;9.90;;;1.80;;
72590;SDS011;60625;51.212;5.952;2023-09-18T23:29:53;11.50;;;1.70;;
72590;SDS011;60625;51.212;5.952;2023-09-18T23:34:55;9.00;;;1.70;;
72590;SDS011;60625;51.212;5.952;2023-09-18T23:39:59;8.90;;;1.60;;
72590;SDS011;60625;51.212;5.952;2023-09-18T23:45:00;11.40;;;2.30;;
72590;SDS011;60625;51.212;5.952;2023-09-18T23:50:07;10.30;;;1.50;;
72590;SDS011;60625;51.212;5.952;2023-09-18T23:55:11;7.90;;;1.40;;
